Brohard, West Virginia
Current Conditions -  °F | °C
As of 3:53 AM on Monday 24 Nov 2014 (Local Time) from KPKB Reporting Station
Overcast Overcast  
Wind Chill: 63°   Ceiling: 3400
Heat Index: 63°   Visibility: 10mi
Dew Point: 52°   Wind: 13mph
Humidity: 67%   Direction: 210°SSW
Pressure: 29.46"   Gusts: 33mph
Location:  39.04°N, 81.18°W
Report Text: KPKB 240853Z AUTO 21011G29KT 10SM BKN034 BKN047 OVC060 17/11 A2946 RMK AO2 PK WND 24029/0832 SLP970 60000 T01720111 53009
Loading
Personal Weather Stations






























Interactive Weather Map New forecast layout! Learn more

10-Day Weather Forecast

Advertisements
Track Severe Weather on mobile